RYR464 LGKP-LGRP
Flight info
| Callsign | RYR464 |
|---|---|
| Flight time | N/A |
| Altitude | 13000 |
| Route | ROXOL |
| Aircraft | B738/M-SDE2E3FGHIRWXY/LB1 |
Departure
| Time | 2026-05-04 09:28 |
|---|---|
| Airport | Karpathos Airport (LGKP) |
Arrival
| Time | N/A |
|---|---|
| Airport | Rhodes International Airport "Diagoras" (LGRP) |
| Time | Latitude | Longitude | Altitude | Speed | Heading |
|---|---|---|---|---|---|
| 2026-05-04 09:17 | 35.42619 | 27.14857 | 30 ft | 0 kts | 313° |
| 2026-05-04 09:25 | 35.41954 | 27.15136 | 57 ft | 18 kts | 131° |
| 2026-05-04 09:25 | 35.41883 | 27.15262 | 55 ft | 18 kts | 125° |
| 2026-05-04 09:26 | 35.41813 | 27.15384 | 65 ft | 17 kts | 125° |
| 2026-05-04 09:26 | 35.41746 | 27.15505 | 68 ft | 18 kts | 124° |
| 2026-05-04 09:26 | 35.41666 | 27.15606 | 69 ft | 16 kts | 166° |
| 2026-05-04 09:26 | 35.41560 | 27.15631 | 74 ft | 15 kts | 168° |
| 2026-05-04 09:27 | 35.41532 | 27.15623 | 75 ft | 1 kts | 228° |
| 2026-05-04 09:27 | 35.41532 | 27.15606 | 69 ft | 5 kts | 276° |
| 2026-05-04 09:27 | 35.41663 | 27.15361 | 64 ft | 73 kts | 304° |
| 2026-05-04 09:27 | 35.42092 | 27.14605 | 175 ft | 131 kts | 302° |
| 2026-05-04 09:28 | 35.42641 | 27.13658 | 994 ft | 137 kts | 304° |
| 2026-05-04 09:28 | 35.43199 | 27.12680 | 1939 ft | 143 kts | 310° |
| 2026-05-04 09:28 | 35.43844 | 27.11559 | 2333 ft | 177 kts | 308° |
| 2026-05-04 09:28 | 35.44571 | 27.10282 | 2960 ft | 184 kts | 308° |
| 2026-05-04 09:29 | 35.45308 | 27.08982 | 3717 ft | 188 kts | 308° |
| 2026-05-04 09:29 | 35.46054 | 27.07668 | 4485 ft | 188 kts | 308° |
| 2026-05-04 09:29 | 35.46803 | 27.06351 | 5204 ft | 189 kts | 308° |
| 2026-05-04 09:29 | 35.47566 | 27.05019 | 5859 ft | 192 kts | 308° |
| 2026-05-04 09:30 | 35.48372 | 27.03676 | 6367 ft | 204 kts | 317° |
| 2026-05-04 09:30 | 35.49618 | 27.02791 | 6706 ft | 222 kts | 342° |
| 2026-05-04 09:30 | 35.51244 | 27.02740 | 7115 ft | 248 kts | 9° |
| 2026-05-04 09:30 | 35.52806 | 27.03766 | 7865 ft | 265 kts | 36° |
| 2026-05-04 09:31 | 35.54023 | 27.05528 | 8729 ft | 275 kts | 49° |
| 2026-05-04 09:31 | 35.55070 | 27.07513 | 9588 ft | 280 kts | 52° |
| 2026-05-04 09:31 | 35.56094 | 27.09567 | 10352 ft | 285 kts | 52° |
| 2026-05-04 09:31 | 35.57173 | 27.11716 | 10607 ft | 308 kts | 52° |
| 2026-05-04 09:32 | 35.58351 | 27.14027 | 10774 ft | 329 kts | 53° |
| 2026-05-04 09:32 | 35.59613 | 27.16483 | 11030 ft | 349 kts | 53° |
| 2026-05-04 09:34 | 35.69312 | 27.35084 | 15038 ft | 383 kts | 53° |
| 2026-05-04 09:34 | 35.70764 | 27.37862 | 15063 ft | 388 kts | 53° |
| 2026-05-04 09:34 | 35.72222 | 27.40647 | 15052 ft | 385 kts | 53° |
| 2026-05-04 09:34 | 35.73679 | 27.43408 | 15057 ft | 384 kts | 53° |
| 2026-05-04 09:35 | 35.75118 | 27.46124 | 15058 ft | 383 kts | 53° |
| 2026-05-04 09:35 | 35.76570 | 27.48870 | 15051 ft | 382 kts | 53° |
| 2026-05-04 09:35 | 35.78025 | 27.51619 | 15048 ft | 381 kts | 53° |
| 2026-05-04 09:35 | 35.79468 | 27.54354 | 14917 ft | 377 kts | 53° |
| 2026-05-04 09:37 | 35.88698 | 27.71926 | 13112 ft | 331 kts | 52° |
| 2026-05-04 09:37 | 35.89943 | 27.74296 | 12848 ft | 328 kts | 52° |
| 2026-05-04 09:38 | 35.91176 | 27.76649 | 12587 ft | 325 kts | 52° |
| 2026-05-04 09:38 | 35.92400 | 27.78988 | 12322 ft | 323 kts | 52° |
| 2026-05-04 09:38 | 35.93613 | 27.81307 | 12073 ft | 321 kts | 52° |
| 2026-05-04 09:38 | 35.94821 | 27.83618 | 11811 ft | 319 kts | 52° |
| 2026-05-04 09:39 | 35.96023 | 27.85916 | 11560 ft | 318 kts | 51° |
| 2026-05-04 09:39 | 35.97217 | 27.88206 | 11310 ft | 316 kts | 52° |
| 2026-05-04 09:39 | 35.98406 | 27.90486 | 11072 ft | 315 kts | 52° |
| 2026-05-04 09:39 | 35.99590 | 27.92757 | 10809 ft | 314 kts | 52° |
| 2026-05-04 09:40 | 36.00757 | 27.94998 | 10569 ft | 313 kts | 52° |
| 2026-05-04 09:40 | 36.01933 | 27.97256 | 10325 ft | 312 kts | 52° |
| 2026-05-04 09:40 | 36.03103 | 27.99506 | 10134 ft | 308 kts | 52° |
| 2026-05-04 09:40 | 36.04238 | 28.01696 | 10071 ft | 297 kts | 52° |
| 2026-05-04 09:41 | 36.05331 | 28.03807 | 9996 ft | 286 kts | 51° |
| 2026-05-04 09:42 | 36.12171 | 28.16997 | 8760 ft | 249 kts | 50° |
| 2026-05-04 09:43 | 36.13094 | 28.18781 | 8506 ft | 247 kts | 50° |
| 2026-05-04 09:43 | 36.14019 | 28.20568 | 8246 ft | 246 kts | 50° |
| 2026-05-04 09:43 | 36.14936 | 28.22345 | 8001 ft | 244 kts | 50° |
| 2026-05-04 09:43 | 36.15847 | 28.24107 | 7754 ft | 242 kts | 50° |
| 2026-05-04 09:44 | 36.16754 | 28.25863 | 7515 ft | 241 kts | 50° |
| 2026-05-04 09:44 | 36.17641 | 28.27582 | 7265 ft | 239 kts | 51° |
| 2026-05-04 09:44 | 36.18537 | 28.29319 | 7049 ft | 241 kts | 50° |
| 2026-05-04 09:46 | 36.28909 | 28.31993 | 5271 ft | 224 kts | 356° |
| 2026-05-04 09:46 | 36.30465 | 28.31931 | 5024 ft | 223 kts | 357° |
| 2026-05-04 09:46 | 36.32014 | 28.31873 | 4771 ft | 222 kts | 357° |
| 2026-05-04 09:47 | 36.33556 | 28.31818 | 4503 ft | 221 kts | 357° |
| 2026-05-04 09:47 | 36.35092 | 28.31766 | 4246 ft | 220 kts | 356° |
| 2026-05-04 09:49 | 36.44691 | 28.31291 | 3339 ft | 171 kts | 333° |
| 2026-05-04 09:49 | 36.45633 | 28.30412 | 3173 ft | 173 kts | 310° |
| 2026-05-04 09:49 | 36.46137 | 28.29034 | 2982 ft | 181 kts | 283° |
| 2026-05-04 09:51 | 36.43964 | 28.20351 | 1755 ft | 156 kts | 258° |
| 2026-05-04 09:51 | 36.43594 | 28.19079 | 1515 ft | 157 kts | 258° |
| 2026-05-04 09:51 | 36.43348 | 28.18240 | 1396 ft | 154 kts | 258° |
| 2026-05-04 09:51 | 36.42994 | 28.17032 | 1198 ft | 143 kts | 259° |
| 2026-05-04 09:52 | 36.42660 | 28.15886 | 998 ft | 141 kts | 260° |
| 2026-05-04 09:52 | 36.42328 | 28.14747 | 804 ft | 139 kts | 258° |
| 2026-05-04 09:52 | 36.42019 | 28.13611 | 686 ft | 143 kts | 257° |
| 2026-05-04 09:52 | 36.41661 | 28.12394 | 1173 ft | 167 kts | 257° |
| 2026-05-04 09:53 | 36.41231 | 28.10919 | 1721 ft | 192 kts | 257° |
| 2026-05-04 09:53 | 36.40751 | 28.09315 | 2390 ft | 202 kts | 257° |
| 2026-05-04 09:53 | 36.40262 | 28.07669 | 3173 ft | 205 kts | 257° |
| 2026-05-04 09:53 | 36.39768 | 28.05983 | 3868 ft | 210 kts | 257° |
| 2026-05-04 09:54 | 36.39283 | 28.04267 | 4465 ft | 217 kts | 263° |
| 2026-05-04 09:54 | 36.39402 | 28.02411 | 4688 ft | 224 kts | 302° |
| 2026-05-04 09:54 | 36.40497 | 28.01065 | 4988 ft | 226 kts | 332° |
| 2026-05-04 09:54 | 36.41914 | 28.00167 | 4976 ft | 230 kts | 335° |
| 2026-05-04 09:55 | 36.43358 | 27.99286 | 4980 ft | 231 kts | 335° |
| 2026-05-04 09:55 | 36.44875 | 27.98758 | 4983 ft | 229 kts | 2° |
| 2026-05-04 09:55 | 36.46348 | 27.99511 | 4994 ft | 240 kts | 38° |
| 2026-05-04 09:55 | 36.47213 | 28.01315 | 4927 ft | 252 kts | 68° |
| 2026-05-04 09:56 | 36.47568 | 28.03447 | 4686 ft | 251 kts | 74° |
| 2026-05-04 09:56 | 36.47847 | 28.05589 | 4331 ft | 247 kts | 75° |
| 2026-05-04 09:56 | 36.48100 | 28.07646 | 4239 ft | 236 kts | 75° |
| 2026-05-04 09:56 | 36.48327 | 28.09616 | 4110 ft | 226 kts | 75° |
| 2026-05-04 09:57 | 36.48545 | 28.11561 | 3687 ft | 229 kts | 75° |
| 2026-05-04 09:57 | 36.48773 | 28.13523 | 3265 ft | 231 kts | 73° |
| 2026-05-04 09:57 | 36.49200 | 28.15439 | 2832 ft | 230 kts | 65° |
| 2026-05-04 09:57 | 36.49697 | 28.17319 | 2508 ft | 229 kts | 65° |
| 2026-05-04 09:58 | 36.50180 | 28.19169 | 2188 ft | 227 kts | 65° |
| 2026-05-04 09:58 | 36.50659 | 28.21026 | 2029 ft | 226 kts | 65° |
| 2026-05-04 09:58 | 36.51151 | 28.22904 | 2003 ft | 229 kts | 65° |
| 2026-05-04 10:00 | 36.46914 | 28.29989 | 1975 ft | 191 kts | 242° |
| 2026-05-04 10:00 | 36.46366 | 28.28557 | 1994 ft | 182 kts | 259° |
| 2026-05-04 10:02 | 36.43503 | 28.18773 | 1472 ft | 157 kts | 258° |
| 2026-05-04 10:04 | 36.40881 | 28.09809 | 32 ft | 145 kts | 258° |
| 2026-05-04 10:04 | 36.40596 | 28.08807 | 28 ft | 94 kts | 248° |
| 2026-05-04 10:04 | 36.40434 | 28.08265 | 27 ft | 53 kts | 250° |